Latest Weather Observations for Rockhampton

IDQ60801

Issued at 9:32 pm EST Thursday 22 June 2017 (issued every 30 minutes, with the page automatically refreshed every 10 minutes)

About weather observations | Map of weather stations | Latest weather observations for QLD | Other Formats
Station Details ID: 039083 Name: ROCKHAMPTON AERO Lat: -23.38 Lon: 150.48 Height: 10.4 m
Data from the previous 72 hours. | See also: Recent months at Rockhampton
Date/Time
EST
Temp
°C
App
Temp
°C
Dew
Point
°C
Rel
Hum
%
Delta-T
°C
Wind Press
QNH
hPa
Press
MSL
hPa
Rain since
9am
mm
Dir  Spd
km/h
Gust
km/h
Spd
kts
Gust
kts
22/09:30pm 18.5 18.4 13.9 74 2.6 SE 7 13 4 7 1022.6 1022.6 0.0
22/09:00pm 19.0 17.8 12.9 67 3.4 SSE 11 13 6 7 1022.7 1022.7 0.0
22/08:30pm 19.5 18.6 12.5 64 3.9 SSE 9 13 5 7 1022.4 1022.4 0.0
22/08:00pm 20.0 20.4 12.5 62 4.2 E 2 6 1 3 1022.3 1022.3 0.0
22/07:30pm 20.5 20.1 12.5 60 4.5 ENE 6 6 3 3 1022.1 1022.1 0.0
22/07:00pm 20.9 19.8 11.9 56 5.0 ENE 9 13 5 7 1021.9 1021.9 0.0
22/06:30pm 21.0 20.0 12.3 57 4.9 ENE 9 13 5 7 1021.7 1021.7 0.0
22/06:00pm 21.3 20.0 12.6 57 4.9 ENE 11 15 6 8 1021.4 1021.4 0.0
22/05:30pm 21.9 20.8 11.9 53 5.6 ENE 9 17 5 9 1021.1 1021.1 0.0
22/05:00pm 22.6 20.8 10.8 47 6.5 ENE 11 17 6 9 1020.8 1020.8 0.0
22/04:30pm 22.7 21.4 11.4 49 6.3 ENE 9 17 5 9 1020.7 1020.7 0.0
22/04:00pm 23.7 21.0 10.2 42 7.4 ENE 15 20 8 11 1020.6 1020.6 0.0
22/03:30pm 24.0 22.0 10.1 41 7.6 E 11 17 6 9 1020.5 1020.5 0.0
22/03:00pm 24.5 21.9 9.4 38 8.2 ESE 13 20 7 11 1020.4 1020.4 0.0
22/02:30pm 24.2 21.5 8.9 37 8.2 ESE 13 24 7 13 1020.5 1020.5 0.0
22/02:00pm 23.8 21.6 9.4 40 7.8 ESE 11 19 6 10 1020.6 1020.6 0.0
22/01:30pm 24.4 22.1 9.0 37 8.3 ENE 11 17 6 9 1021.0 1021.0 0.0
22/01:00pm 24.8 22.1 8.8 36 8.6 E 13 22 7 12 1021.5 1021.5 0.0
22/12:30pm 24.0 21.7 10.4 42 7.5 ESE 13 22 7 12 1022.1 1022.1 0.0
22/12:00pm 23.4 21.1 10.5 44 7.1 ESE 13 20 7 11 1022.7 1022.7 0.0
22/11:30am 23.4 21.2 10.9 45 6.9 SE 13 28 7 15 1023.2 1023.2 0.0
22/11:00am 21.8 19.6 10.9 50 6.0 ESE 13 19 7 10 1023.8 1023.8 0.0
22/10:30am 20.9 18.1 9.9 49 5.9 SE 15 20 8 11 1024.1 1024.1 0.0
22/10:00am 20.3 18.4 9.1 48 5.9 SE 9 15 5 8 1024.2 1024.2 0.0
22/09:30am 19.1 17.9 9.4 53 5.1 S 6 9 3 5 1024.5 1024.5 0.0
22/09:00am 17.9 16.8 9.9 59 4.2 S 6 9 3 5 1024.6 1024.6 0.0
22/08:30am 15.1 14.0 10.7 75 2.3 S 7 11 4 6 1024.3 1024.3 0.0
22/08:00am 13.5 12.7 11.2 86 1.2 SSE 6 9 3 5 1024.0 1024.0 0.0
22/07:30am 11.5 11.5 9.7 89 0.9 CALM 0 0 0 0 1023.7 1023.7 0.0
22/07:00am 9.9 9.7 8.9 93 0.5 CALM 0 0 0 0 1023.5 1023.5 0.0
22/06:30am 10.0 9.2 8.3 89 0.8 SSW 2 7 1 4 1023.3 1023.3 0.0
22/06:00am 9.2 7.6 7.9 92 0.6 SSW 6 9 3 5 1023.3 1023.3 0.0
22/05:30am 10.1 8.6 8.5 90 0.8 S 6 7 3 4 1022.8 1022.8 0.0
22/05:00am 10.3 9.9 8.4 88 0.9 CALM 0 0 0 0 1022.7 1022.7 0.0
22/04:30am 10.8 10.6 9.0 89 0.9 CALM 0 0 0 0 1022.4 1022.4 0.0
22/04:00am 10.6 9.2 8.8 89 0.9 SSE 6 7 3 4 1022.3 1022.3 0.0
22/03:30am 12.7 11.3 8.9 78 1.9 ESE 6 7 3 4 1022.3 1022.3 0.0
22/03:00am 11.9 11.8 9.3 84 1.3 CALM 0 0 0 0 1022.3 1022.3 0.0
22/02:30am 12.4 10.6 9.6 83 1.4 SSE 9 13 5 7 1022.4 1022.4 0.0
22/02:00am 12.4 10.2 10.7 89 0.9 SSE 13 17 7 9 1022.4 1022.4 0.0
22/01:30am 11.3 10.2 10.1 92 0.6 SSW 6 9 3 5 1022.2 1022.2 0.0
22/01:00am 11.5 10.5 10.3 92 0.6 SSW 6 7 3 4 1022.2 1022.2 0.0
22/12:30am 12.2 12.4 10.5 89 0.9 CALM 0 6 0 3 1022.4 1022.4 0.0
22/12:00am 12.8 12.0 11.1 89 0.9 SSW 6 7 3 4 1022.8 1022.8 0.0
 
Date/Time
EST
Temp
°C
App
Temp
°C
Dew
Point
°C
Rel
Hum
%
Delta-T
°C
Wind Press
QNH
hPa
Press
MSL
hPa
Rain since
9am
mm
Dir  Spd
km/h
Gust
km/h
Spd
kts
Gust
kts
21/11:30pm 13.3 13.7 11.2 87 1.1 CALM 0 0 0 0 1022.8 1022.8 0.0
21/11:00pm 14.6 13.8 11.2 80 1.8 S 6 7 3 4 1023.0 1023.0 0.0
21/10:30pm 14.0 13.4 11.6 85 1.3 SE 6 7 3 4 1023.0 1023.0 0.0
21/10:00pm 14.5 14.9 11.3 81 1.7 CALM 0 0 0 0 1023.1 1023.1 0.0
21/09:30pm 14.9 14.4 12.1 83 1.5 SSE 6 9 3 5 1022.9 1022.9 0.0
21/09:00pm 14.9 14.1 11.1 78 2.0 S 6 9 3 5 1022.6 1022.6 0.0
21/08:30pm 14.9 15.0 10.1 73 2.5 CALM 0 0 0 0 1022.3 1022.3 0.0
21/08:00pm 15.9 16.0 10.2 69 3.0 CALM 0 0 0 0 1022.0 1022.0 0.0
21/07:30pm 16.5 16.6 10.2 66 3.3 CALM 0 0 0 0 1021.6 1021.6 0.0
21/07:00pm 17.3 17.7 11.2 67 3.3 CALM 0 6 0 3 1021.2 1021.2 0.0
21/06:30pm 19.2 17.9 9.1 52 5.3 S 6 9 3 5 1021.0 1021.0 0.0
21/06:00pm 19.1 17.6 8.5 50 5.5 S 6 9 3 5 1020.7 1020.7 0.0
21/05:30pm 22.0 21.6 8.3 41 7.2 CALM 0 0 0 0 1020.5 1020.5 0.0
21/05:00pm 23.0 21.4 7.9 38 7.9 ENE 6 7 3 4 1020.2 1020.2 0.0
21/04:30pm 23.8 21.5 7.3 34 8.6 ENE 9 11 5 6 1020.0 1020.0 0.0
21/04:00pm 24.3 22.0 7.5 34 8.8 ENE 9 13 5 7 1019.9 1019.9 0.0
21/03:30pm 24.6 21.4 6.9 32 9.2 ESE 13 20 7 11 1019.7 1019.7 0.0
21/03:00pm 24.4 22.1 7.4 33 8.9 ENE 9 17 5 9 1019.8 1019.8 0.0
21/02:30pm 24.5 22.2 7.6 34 8.9 E 9 17 5 9 1019.9 1019.9 0.0
21/02:00pm 24.1 20.5 6.9 33 8.9 SE 15 22 8 12 1020.2 1020.2 0.0
21/01:30pm 24.3 21.1 7.0 33 9.0 SE 13 20 7 11 1020.4 1020.4 0.0
21/01:00pm 23.8 20.2 6.7 33 8.8 ESE 15 20 8 11 1020.8 1020.8 0.0
21/12:30pm 23.5 20.0 7.4 35 8.4 SSE 15 26 8 14 1021.0 1021.0 0.0
21/12:00pm 23.2 20.0 8.5 39 7.8 SE 15 22 8 12 1021.5 1021.5 0.0
21/11:30am 22.9 19.9 9.3 42 7.3 SE 15 22 8 12 1022.1 1022.1 0.0
21/11:00am 21.9 19.4 9.8 46 6.5 SE 13 22 7 12 1022.5 1022.5 0.0
21/10:30am 21.7 19.4 10.3 48 6.2 SE 13 20 7 11 1022.9 1022.9 0.0
21/10:00am 20.8 20.3 12.2 58 4.8 SSE 6 11 3 6 1023.3 1023.3 0.0
21/09:30am 19.5 18.8 11.9 61 4.2 S 7 11 4 6 1023.4 1023.4 0.0
21/09:00am 17.6 17.0 12.3 71 2.9 SSW 7 9 4 5 1023.4 1023.4 0.0
21/08:30am 15.7 15.4 12.8 83 1.6 SSW 6 7 3 4 1023.1 1023.1 0.0
21/08:00am 13.5 13.0 12.0 91 0.8 SW 6 9 3 5 1022.8 1022.8 0.0
21/07:30am 12.3 12.7 11.3 94 0.5 CALM 0 0 0 0 1022.4 1022.4 0.0
21/07:00am 11.4 10.5 10.8 96 0.3 SW 6 9 3 5 1022.1 1022.1 0.0
21/06:30am 11.3 10.3 10.9 97 0.2 SW 7 9 4 5 1021.8 1021.8 0.0
21/06:00am 11.3 11.5 10.7 96 0.3 CALM 0 6 0 3 1021.5 1021.5 0.0
21/05:30am 11.8 11.0 11.2 96 0.3 SW 6 7 3 4 1021.2 1021.2 0.0
21/05:00am 12.0 12.2 10.4 90 0.8 CALM 0 0 0 0 1020.8 1020.8 0.0
21/04:30am 12.6 13.1 11.7 94 0.5 CALM 0 0 0 0 1020.7 1020.7 0.0
21/04:00am 12.7 13.1 11.4 92 0.7 CALM 0 0 0 0 1020.7 1020.7 0.0
21/03:30am 13.2 13.9 12.1 93 0.6 CALM 0 0 0 0 1020.7 1020.7 0.0
21/03:00am 12.5 13.0 11.7 95 0.4 CALM 0 0 0 0 1020.7 1020.7 0.0
21/02:30am 12.9 13.6 12.2 95 0.4 CALM 0 0 0 0 1020.8 1020.8 0.0
21/02:00am 12.9 12.9 12.3 96 0.3 SSW 4 9 2 5 1021.1 1021.1 0.0
21/01:30am 13.2 13.9 12.1 93 0.6 CALM 0 4 0 2 1021.2 1021.2 0.0
21/01:00am 14.0 13.6 12.9 93 0.6 S 7 9 4 5 1021.3 1021.3 0.0
21/12:30am 14.0 13.7 12.7 92 0.7 SW 6 7 3 4 1021.4 1021.4 0.0
21/12:00am 14.3 15.3 13.2 93 0.6 CALM 0 0 0 0 1021.3 1021.3 0.0
 
Date/Time
EST
Temp
°C
App
Temp
°C
Dew
Point
°C
Rel
Hum
%
Delta-T
°C
Wind Press
QNH
hPa
Press
MSL
hPa
Rain since
9am
mm
Dir  Spd
km/h
Gust
km/h
Spd
kts
Gust
kts
20/11:30pm 13.8 14.7 12.9 94 0.5 CALM 0 0 0 0 1021.3 1021.3 0.0
20/11:00pm 14.4 14.2 13.1 92 0.7 W 6 9 3 5 1021.3 1021.3 0.0
20/10:30pm 14.7 15.6 12.9 89 1.0 CALM 0 0 0 0 1021.3 1021.3 0.0
20/10:00pm 15.2 16.0 12.6 84 1.4 CALM 0 0 0 0 1021.4 1021.4 0.0
20/09:30pm 16.5 17.4 12.9 79 2.0 CALM 0 0 0 0 1021.4 1021.4 0.0
20/09:00pm 17.0 17.9 12.9 77 2.3 CALM 0 0 0 0 1021.2 1021.2 0.0
20/08:30pm 17.2 18.2 13.1 77 2.3 CALM 0 6 0 3 1021.1 1021.1 0.0
20/08:00pm 17.6 17.4 12.9 74 2.6 SW 6 6 3 3 1020.9 1020.9 0.0
20/07:30pm 17.7 17.2 12.5 71 2.9 WSW 7 9 4 5 1020.3 1020.3 0.0
20/07:00pm 18.3 18.1 13.1 71 2.9 N 6 7 3 4 1019.9 1019.9 0.0
20/06:30pm 19.5 19.0 12.5 64 3.9 E 7 9 4 5 1019.7 1019.7 0.0
20/06:00pm 20.6 20.0 12.2 58 4.7 ENE 7 9 4 5 1019.4 1019.4 0.0
20/05:30pm 22.0 20.9 11.8 52 5.7 ENE 9 13 5 7 1019.2 1019.2 0.0
20/05:00pm 23.2 21.6 11.6 48 6.5 E 11 15 6 8 1018.8 1018.8 0.0
20/04:30pm 24.2 21.1 10.2 41 7.7 ESE 17 24 9 13 1018.5 1018.5 0.0
20/04:00pm 24.8 21.9 9.6 38 8.3 ESE 15 22 8 12 1018.4 1018.4 0.0
20/03:30pm 25.2 23.0 10.7 40 8.1 SE 13 20 7 11 1018.2 1018.2 0.0
20/03:00pm 25.2 22.1 10.2 38 8.3 ESE 17 28 9 15 1018.2 1018.2 0.0
20/02:30pm 25.0 22.0 10.6 40 8.0 ESE 17 22 9 12 1018.4 1018.4 0.0
20/02:00pm 24.5 21.7 10.1 40 7.9 ESE 15 22 8 12 1018.6 1018.6 0.0
20/01:30pm 24.8 22.4 11.3 42 7.6 SE 15 24 8 13 1018.9 1018.9 0.0
20/01:00pm 24.0 21.9 11.3 45 7.1 SE 13 22 7 12 1019.3 1019.3 0.0
20/12:30pm 23.6 20.4 11.2 45 6.9 ESE 19 28 10 15 1019.8 1019.8 0.0
20/12:00pm 24.0 21.3 11.8 46 6.9 SE 17 28 9 15 1020.3 1020.3 0.0
20/11:30am 22.7 19.7 11.8 50 6.1 SE 19 30 10 16 1020.7 1020.7 0.0
20/11:00am 22.0 18.3 11.4 51 5.9 SE 22 30 12 16 1021.0 1021.0 0.0
20/10:30am 21.7 18.3 11.2 51 5.8 SE 20 32 11 17 1021.1 1021.1 0.0
20/10:00am 21.3 18.4 11.1 52 5.6 ESE 17 32 9 17 1021.4 1021.4 0.0
20/09:30am 20.7 18.9 11.0 53 5.3 SE 11 20 6 11 1021.5 1021.5 0.0
20/09:00am 19.0 18.4 11.7 62 4.0 S 6 9 3 5 1021.6 1021.6 0.0
20/08:30am 16.7 15.8 11.3 70 2.9 S 7 11 4 6 1021.3 1021.3 0.0
20/08:00am 14.7 14.2 11.9 83 1.5 SSW 6 7 3 4 1021.2 1021.2 0.0
20/07:30am 13.2 13.0 11.7 91 0.8 SSW 4 7 2 4 1020.9 1020.9 0.0
20/07:00am 12.7 11.8 10.8 88 1.0 SSW 6 11 3 6 1020.6 1020.6 0.0
20/06:30am 11.7 11.9 10.7 94 0.5 CALM 0 0 0 0 1020.3 1020.3 0.0
20/06:00am 12.1 12.4 10.9 92 0.6 CALM 0 0 0 0 1020.1 1020.1 0.0
20/05:30am 12.2 12.5 11.0 92 0.6 CALM 0 0 0 0 1019.8 1019.8 0.0
20/05:00am 12.2 12.5 10.9 92 0.7 CALM 0 0 0 0 1019.6 1019.6 0.0
20/04:30am 12.6 13.0 11.3 92 0.7 CALM 0 0 0 0 1019.5 1019.5 0.0
20/04:00am 12.6 13.0 11.3 92 0.7 CALM 0 0 0 0 1019.5 1019.5 0.0
20/03:30am 12.7 13.3 11.9 95 0.4 CALM 0 0 0 0 1019.6 1019.6 0.0
20/03:00am 12.7 13.3 11.9 95 0.4 CALM 0 0 0 0 1019.8 1019.8 0.0
20/02:30am 13.1 13.8 12.2 94 0.5 CALM 0 0 0 0 1019.8 1019.8 0.0
20/02:00am 13.6 14.4 12.7 94 0.5 CALM 0 0 0 0 1019.8 1019.8 0.0
20/01:30am 13.8 14.7 12.9 94 0.5 CALM 0 0 0 0 1020.0 1020.0 0.0
20/01:00am 13.6 14.3 12.3 92 0.7 CALM 0 0 0 0 1020.2 1020.2 0.0
20/12:30am 14.0 14.8 12.7 92 0.7 CALM 0 0 0 0 1020.4 1020.4 0.0
20/12:00am 13.9 14.7 12.6 92 0.7 CALM 0 0 0 0 1020.5 1020.5 0.0
 
Date/Time
EST
Temp
°C
App
Temp
°C
Dew
Point
°C
Rel
Hum
%
Delta-T
°C
Wind Press
QNH
hPa
Press
MSL
hPa
Rain since
9am
mm
Dir  Spd
km/h
Gust
km/h
Spd
kts
Gust
kts
19/11:30pm 14.4 15.3 12.9 91 0.8 CALM 0 0 0 0 1020.5 1020.5 0.0
19/11:00pm 14.9 15.8 12.9 88 1.1 CALM 0 0 0 0 1020.6 1020.6 0.0
19/10:30pm 15.0 16.1 13.4 90 0.9 CALM 0 0 0 0 1020.6 1020.6 0.0
19/10:00pm 15.2 16.3 13.4 89 1.0 CALM 0 0 0 0 1020.7 1020.7 0.0

Other Formats:

Comma delimited format used in spreadsheet applications
http://www.bom.gov.au/fwo/IDQ60801/IDQ60801.94374.axf

JavaScript Object Notation format (JSON) in row-major order
http://www.bom.gov.au/fwo/IDQ60801/IDQ60801.94374.json